Grand Detour, Illinois
Current Conditions -  °F | °C
As of 7:55 AM on Monday 24 Nov 2014 (Local Time) from KSQI Reporting Station
Overcast Overcast  
Wind Chill: 22°   Ceiling: 600
Heat Index: 34°   Visibility: 2mi
Dew Point: 30°   Wind: 23mph
Humidity: 87%   Direction: 280°W
Pressure: 29.24"   Gusts: 29mph
Location:  41.8109°N, 89.4546°W
Report Text: KSQI 241355Z 28020G25KT 2SM OVC006 01/M01 A2924 RMK AO1 P0001
Loading
Personal Weather Stations






























Interactive Weather Map New forecast layout! Learn more

10-Day Weather Forecast

Advertisements
Track Severe Weather on mobile